Terminal Aerodrome Forecast
Issued by NWS St Louis, MO

Home | Current Version | Previous Version | Text Only | Print | Product List | Glossary On
Versions: 1 2 3 4 5 6 7 8 9 10 11 12 13 14 15 16 17 18 19 20 21 22 23 24 25 26 27
000
FTUS43 KLSX 261456 AAB
TAFSTL
TAF AMD
KSTL 261456Z 2615/2718 19008KT 6SM -SHRA SCT035 BKN100
     FM261530 20006KT P6SM SCT040 BKN100
     FM261800 18006KT P6SM VCTS SCT040CB BKN250
     FM270100 14005KT P6SM SCT050 BKN200=

USA.gov is the U.S. government's official web portal to all federal, state and local government web resources and services.